createdAt,value
2023-03-12T00:02:12.622Z,98.95
2023-03-12T00:04:40.670Z,98.79
2023-03-12T00:07:08.307Z,99.08
2023-03-12T00:09:38.682Z,98.69
2023-03-12T00:12:08.620Z,98.05
2023-03-12T00:14:35.538Z,98.15
2023-03-12T00:17:02.295Z,98.09
2023-03-12T00:19:29.552Z,97.94
2023-03-12T00:21:57.835Z,97.82
2023-03-12T00:24:26.824Z,98.10
2023-03-12T00:26:54.474Z,98.14
2023-03-12T00:29:21.219Z,98.00
2023-03-12T00:31:47.897Z,98.39
2023-03-12T00:34:14.745Z,98.35
2023-03-12T00:36:41.410Z,98.73
2023-03-12T00:39:10.667Z,98.79
2023-03-12T00:41:47.177Z,98.77
2023-03-12T00:44:13.869Z,98.89
2023-03-12T00:46:40.542Z,98.96
2023-03-12T00:49:07.226Z,98.37
2023-03-12T00:51:33.850Z,98.38
2023-03-12T00:54:00.728Z,98.38
2023-03-12T00:56:27.409Z,98.83
2023-03-12T00:58:54.241Z,98.60
2023-03-12T01:01:20.884Z,98.72
2023-03-12T01:03:50.858Z,98.98
2023-03-12T01:06:18.245Z,98.90
2023-03-12T01:08:45.978Z,98.43
2023-03-12T01:11:14.186Z,98.14
2023-03-12T01:13:40.907Z,97.33
2023-03-12T01:16:07.677Z,96.17
2023-03-12T01:18:34.522Z,95.92
2023-03-12T01:21:01.807Z,95.77
2023-03-12T01:23:28.922Z,95.55
2023-03-12T01:25:55.854Z,95.87
2023-03-12T01:28:23.309Z,95.70
2023-03-12T01:30:50.142Z,95.73
2023-03-12T01:33:17.942Z,96.39
2023-03-12T01:35:45.396Z,96.50
2023-03-12T01:38:13.473Z,96.41
2023-03-12T01:40:40.381Z,96.22
2023-03-12T01:43:29.586Z,95.77
2023-03-12T01:46:32.387Z,96.32
2023-03-12T01:49:29.215Z,95.85
2023-03-12T01:52:07.418Z,95.11
2023-03-12T01:54:49.564Z,94.63
2023-03-12T01:57:34.868Z,93.59
2023-03-12T02:00:08.348Z,93.29
2023-03-12T02:02:42.169Z,93.75
2023-03-12T02:05:19.489Z,93.97
2023-03-12T02:07:46.559Z,93.68
2023-03-12T02:10:13.913Z,93.44
2023-03-12T02:12:42.269Z,94.10
2023-03-12T02:15:09.441Z,94.47
2023-03-12T02:17:40.310Z,93.89
2023-03-12T02:20:19.403Z,94.06
2023-03-12T02:22:52.353Z,94.77
2023-03-12T02:25:30.866Z,94.78
2023-03-12T02:27:59.157Z,95.02
2023-03-12T02:30:27.788Z,95.70
2023-03-12T02:33:00.105Z,95.80
2023-03-12T02:35:27.288Z,95.06
2023-03-12T02:37:55.263Z,95.49
2023-03-12T02:40:35.926Z,95.81
2023-03-12T02:43:07.379Z,95.37
2023-03-12T02:45:35.742Z,95.17
2023-03-12T02:48:03.169Z,95.21
2023-03-12T02:50:31.961Z,94.75
2023-03-12T02:52:58.562Z,94.16
2023-03-12T02:55:27.197Z,94.50
2023-03-12T02:57:53.913Z,94.86
2023-03-12T03:00:21.143Z,94.75
2023-03-12T03:02:51.419Z,94.05
2023-03-12T03:05:19.931Z,93.92
2023-03-12T03:07:49.331Z,93.90
2023-03-12T03:10:17.810Z,93.87
2023-03-12T03:12:44.557Z,93.63
2023-03-12T03:15:12.245Z,93.85
2023-03-12T03:17:39.874Z,93.67
2023-03-12T03:20:10.675Z,92.99
2023-03-12T03:22:43.540Z,92.67
2023-03-12T03:25:10.569Z,92.56
2023-03-12T03:27:37.140Z,93.02
2023-03-12T03:30:05.862Z,93.55
2023-03-12T03:32:34.206Z,93.56
2023-03-12T03:35:06.005Z,93.78
2023-03-12T03:37:33.746Z,92.88
2023-03-12T03:40:01.193Z,93.46
2023-03-12T03:42:28.156Z,93.83
2023-03-12T03:44:55.483Z,93.99
2023-03-12T03:47:23.225Z,94.19
2023-03-12T03:49:50.070Z,93.70
2023-03-12T03:52:16.816Z,93.09
2023-03-12T03:54:43.956Z,91.89
2023-03-12T03:57:10.798Z,91.81
2023-03-12T03:59:43.731Z,92.07
2023-03-12T04:02:10.806Z,92.42
2023-03-12T04:04:38.143Z,92.39
2023-03-12T04:07:08.606Z,92.07
2023-03-12T04:09:36.478Z,92.39
2023-03-12T04:12:05.400Z,92.63
2023-03-12T04:14:32.733Z,92.59
2023-03-12T04:17:00.109Z,92.92
2023-03-12T04:19:27.223Z,93.49
2023-03-12T04:21:54.072Z,94.21
2023-03-12T04:24:22.018Z,94.05
2023-03-12T04:26:49.188Z,93.79
2023-03-12T04:29:18.115Z,94.00
2023-03-12T04:31:45.580Z,94.33
2023-03-12T04:34:14.402Z,94.37
2023-03-12T04:36:41.807Z,94.30
2023-03-12T04:39:08.991Z,94.22
2023-03-12T04:41:36.848Z,94.47
2023-03-12T04:44:10.934Z,94.70
2023-03-12T04:46:39.836Z,94.34
2023-03-12T04:49:07.303Z,94.46
2023-03-12T04:51:34.859Z,94.43
2023-03-12T04:56:09.898Z,94.75
2023-03-12T04:58:38.480Z,94.51
2023-03-12T05:01:07.246Z,94.24
2023-03-12T05:03:35.756Z,94.31
2023-03-12T05:06:05.068Z,94.50
2023-03-12T05:08:41.859Z,94.24
2023-03-12T05:11:13.496Z,93.91
2023-03-12T05:13:42.060Z,94.25
2023-03-12T05:16:11.479Z,94.04
2023-03-12T05:18:43.546Z,94.21
2023-03-12T05:21:14.098Z,94.17
2023-03-12T05:23:43.244Z,93.89
2023-03-12T05:26:19.018Z,93.74
2023-03-12T05:28:47.596Z,93.93
2023-03-12T05:31:16.125Z,93.92
2023-03-12T05:33:44.678Z,93.58
2023-03-12T05:36:13.632Z,93.43
2023-03-12T05:38:42.824Z,94.01
2023-03-12T05:41:31.391Z,94.27
2023-03-12T05:44:03.031Z,93.73
2023-03-12T05:46:32.156Z,93.25
2023-03-12T05:49:00.630Z,92.98
2023-03-12T05:51:29.565Z,93.49
2023-03-12T05:53:57.547Z,93.35
2023-03-12T05:56:25.489Z,93.33
2023-03-12T05:58:53.842Z,93.03
2023-03-12T06:01:27.004Z,93.31
2023-03-12T06:03:56.652Z,93.57
2023-03-12T06:06:26.030Z,93.47
2023-03-12T06:08:55.679Z,92.93
2023-03-12T06:11:23.755Z,92.85
2023-03-12T06:13:52.752Z,92.87
2023-03-12T06:16:22.325Z,92.89
2023-03-12T06:18:58.153Z,92.89
2023-03-12T06:21:35.248Z,92.57
2023-03-12T06:24:05.249Z,92.57
2023-03-12T06:26:49.350Z,92.54
2023-03-12T06:29:17.346Z,92.20
2023-03-12T06:31:45.477Z,92.02
2023-03-12T06:34:14.230Z,92.07
2023-03-12T06:36:42.524Z,92.30
2023-03-12T06:39:10.595Z,92.26
2023-03-12T06:41:41.592Z,92.01
2023-03-12T06:44:10.023Z,92.01
2023-03-12T06:46:42.716Z,92.60
2023-03-12T06:49:11.516Z,92.55
2023-03-12T06:51:39.538Z,92.53
2023-03-12T06:54:08.572Z,92.66
2023-03-12T06:56:37.130Z,92.76
2023-03-12T06:59:06.353Z,92.76
2023-03-12T07:01:35.067Z,92.50
2023-03-12T07:04:03.138Z,92.19
2023-03-12T07:06:31.320Z,92.01
2023-03-12T07:09:05.365Z,91.88
2023-03-12T07:11:36.569Z,92.42
2023-03-12T07:14:04.995Z,92.21
2023-03-12T07:16:36.529Z,92.26
2023-03-12T07:19:05.799Z,92.12
2023-03-12T07:21:34.258Z,92.28
2023-03-12T07:24:08.027Z,92.30
2023-03-12T07:26:36.955Z,91.36
2023-03-12T07:29:05.243Z,91.55
2023-03-12T07:31:33.291Z,91.21
2023-03-12T07:34:03.310Z,90.50
2023-03-12T07:36:36.598Z,91.10
2023-03-12T07:39:04.672Z,91.62
2023-03-12T07:41:32.680Z,91.74
2023-03-12T07:44:00.717Z,91.10
2023-03-12T07:46:29.206Z,90.64
2023-03-12T07:48:57.651Z,90.49
2023-03-12T07:51:25.992Z,90.78
2023-03-12T07:53:54.191Z,89.80
2023-03-12T07:56:22.314Z,90.24
2023-03-12T07:58:50.461Z,89.79
2023-03-12T08:01:18.937Z,89.68
2023-03-12T08:03:47.598Z,88.96
2023-03-12T08:06:16.244Z,88.57
2023-03-12T08:08:44.359Z,87.57
2023-03-12T08:11:12.414Z,86.49
2023-03-12T08:13:42.557Z,85.57
2023-03-12T08:16:14.775Z,85.75
2023-03-12T08:18:44.586Z,85.59
2023-03-12T08:21:16.348Z,84.60
2023-03-12T08:23:45.619Z,83.96
2023-03-12T08:26:15.326Z,82.68
2023-03-12T08:28:43.766Z,81.51
2023-03-12T08:31:12.060Z,81.57
2023-03-12T08:33:43.530Z,81.55
2023-03-12T08:36:11.694Z,81.39
2023-03-12T08:38:40.395Z,80.28
2023-03-12T08:41:08.410Z,80.78
2023-03-12T08:43:36.525Z,80.14
2023-03-12T08:46:06.342Z,80.01
2023-03-12T08:48:34.460Z,80.47
2023-03-12T08:51:04.421Z,79.08
2023-03-12T08:53:35.844Z,79.16
2023-03-12T08:56:04.679Z,78.01
2023-03-12T08:58:32.725Z,78.30
2023-03-12T09:01:00.863Z,77.92
2023-03-12T09:03:29.769Z,79.45
2023-03-12T09:06:05.934Z,79.12
2023-03-12T09:08:36.479Z,77.30
2023-03-12T09:11:05.534Z,78.82
2023-03-12T09:13:54.950Z,79.72
2023-03-12T09:16:22.319Z,82.52
2023-03-12T09:18:51.151Z,81.53
2023-03-12T09:21:22.147Z,79.11
2023-03-12T09:23:50.751Z,77.53
2023-03-12T09:26:19.074Z,79.96
2023-03-12T09:28:49.579Z,78.18
2023-03-12T09:31:17.922Z,79.40
2023-03-12T09:33:45.988Z,78.77
2023-03-12T09:36:14.185Z,80.37
2023-03-12T09:38:42.072Z,79.65
2023-03-12T09:41:27.874Z,80.69
2023-03-12T09:44:04.635Z,80.92
2023-03-12T09:46:41.786Z,78.41
2023-03-12T09:49:46.742Z,75.95
2023-03-12T09:52:22.189Z,77.09
2023-03-12T09:55:23.598Z,77.42
2023-03-12T09:57:51.940Z,76.49
2023-03-12T10:00:21.962Z,73.80
2023-03-12T10:03:05.676Z,73.48
2023-03-12T10:06:04.104Z,76.43
2023-03-12T10:08:57.395Z,75.78
2023-03-12T10:11:55.849Z,75.57
2023-03-12T10:14:43.597Z,74.67
2023-03-12T10:17:27.197Z,74.47
2023-03-12T10:20:03.761Z,70.84
2023-03-12T10:23:11.399Z,68.73
2023-03-12T10:25:48.574Z,67.32
2023-03-12T10:28:22.366Z,69.14
2023-03-12T10:30:54.242Z,69.62
2023-03-12T10:33:26.186Z,69.78
2023-03-12T10:35:54.258Z,69.30
2023-03-12T10:38:28.363Z,68.67
2023-03-12T10:40:56.632Z,68.54
2023-03-12T10:43:25.624Z,69.45
2023-03-12T10:46:22.063Z,69.42
2023-03-12T10:48:52.316Z,69.81
2023-03-12T10:51:20.702Z,68.69
2023-03-12T10:53:51.146Z,68.82
2023-03-12T10:56:19.667Z,69.62
2023-03-12T10:58:51.603Z,68.81
2023-03-12T11:01:22.693Z,68.83
2023-03-12T11:03:51.563Z,69.13
2023-03-12T11:06:29.132Z,70.75
2023-03-12T11:09:16.693Z,71.20
2023-03-12T11:11:47.752Z,69.74
2023-03-12T11:14:23.293Z,71.44
2023-03-12T11:16:52.192Z,69.69
2023-03-12T11:19:33.293Z,66.59
2023-03-12T11:22:08.769Z,64.46
2023-03-12T11:24:37.137Z,64.11
2023-03-12T11:27:07.072Z,65.10
2023-03-12T11:29:41.112Z,63.66
2023-03-12T11:32:30.189Z,63.01
2023-03-12T11:34:58.535Z,64.34
2023-03-12T11:38:01.013Z,65.01
2023-03-12T11:41:00.837Z,65.95
2023-03-12T11:43:43.733Z,65.77
2023-03-12T11:46:21.719Z,66.23
2023-03-12T11:49:22.209Z,62.81
2023-03-12T11:51:53.748Z,63.68
2023-03-12T11:54:43.325Z,62.28
2023-03-12T11:57:40.696Z,61.80
2023-03-12T12:00:18.119Z,62.40
2023-03-12T12:02:55.836Z,58.24
2023-03-12T12:05:27.248Z,60.93
2023-03-12T12:08:04.083Z,61.21
2023-03-12T12:10:52.500Z,61.17
2023-03-12T12:13:38.954Z,59.26
2023-03-12T12:16:23.699Z,59.71
2023-03-12T12:18:54.752Z,59.95
2023-03-12T12:21:48.614Z,60.71
2023-03-12T12:24:22.847Z,62.02
2023-03-12T12:27:19.669Z,62.96
2023-03-12T12:30:01.705Z,63.01
2023-03-12T12:32:52.161Z,63.45
2023-03-12T12:35:36.033Z,62.62
2023-03-12T12:38:07.219Z,64.44
2023-03-12T12:40:42.009Z,64.22
2023-03-12T12:43:16.202Z,64.00
2023-03-12T12:45:44.330Z,63.75
2023-03-12T12:48:30.579Z,63.81
2023-03-12T12:51:02.194Z,63.80
2023-03-12T12:53:47.257Z,63.91
2023-03-12T12:56:34.310Z,65.00
2023-03-12T12:59:25.223Z,63.99
2023-03-12T13:01:55.166Z,65.28
2023-03-12T13:04:34.120Z,64.70
2023-03-12T13:07:12.146Z,66.01
2023-03-12T13:09:41.716Z,66.82
2023-03-12T13:12:27.105Z,67.67
2023-03-12T13:14:57.754Z,67.56
2023-03-12T13:17:28.128Z,67.87
2023-03-12T13:20:08.480Z,68.52
2023-03-12T13:23:05.177Z,69.09
2023-03-12T13:25:52.457Z,69.61
2023-03-12T13:29:05.998Z,70.17
2023-03-12T13:31:41.436Z,70.32
2023-03-12T13:34:15.492Z,71.06
2023-03-12T13:37:07.633Z,70.84
2023-03-12T13:39:36.313Z,71.95
2023-03-12T13:42:22.973Z,71.62
2023-03-12T13:44:52.262Z,71.09
2023-03-12T13:47:26.573Z,71.78
2023-03-12T13:49:58.899Z,73.21
2023-03-12T13:52:33.856Z,74.09
2023-03-12T13:55:03.138Z,73.43
2023-03-12T13:57:40.316Z,73.69
2023-03-12T14:00:18.571Z,73.44
2023-03-12T14:02:57.892Z,73.62
2023-03-12T14:05:26.114Z,73.60
2023-03-12T14:08:15.792Z,73.34
2023-03-12T14:10:52.312Z,73.16
2023-03-12T14:13:29.580Z,73.18
2023-03-12T14:16:17.304Z,72.41
2023-03-12T14:18:47.797Z,72.00
2023-03-12T14:21:17.064Z,72.16
2023-03-12T14:23:54.775Z,72.42
2023-03-12T14:26:34.459Z,72.20
2023-03-12T14:29:05.225Z,72.36
2023-03-12T14:31:35.860Z,71.12
2023-03-12T14:34:20.826Z,70.80
2023-03-12T14:36:57.150Z,70.47
2023-03-12T14:39:55.782Z,70.70
2023-03-12T14:42:29.552Z,71.38
2023-03-12T14:45:19.019Z,71.15
2023-03-12T14:47:59.598Z,71.80
2023-03-12T14:50:36.332Z,71.76
2023-03-12T14:53:26.435Z,71.70
2023-03-12T14:56:09.283Z,72.48
2023-03-12T14:58:46.804Z,74.16
2023-03-12T15:01:30.442Z,76.02
2023-03-12T15:04:03.520Z,81.28
2023-03-12T15:06:37.469Z,85.66
2023-03-12T15:09:07.902Z,86.66
2023-03-12T15:11:40.467Z,87.24
2023-03-12T15:14:15.820Z,87.44
2023-03-12T15:16:46.620Z,87.77
2023-03-12T15:19:17.391Z,86.52
2023-03-12T15:21:50.889Z,86.15
2023-03-12T15:24:19.715Z,85.77
2023-03-12T15:26:48.410Z,85.51
2023-03-12T15:29:41.031Z,85.21
2023-03-12T15:32:18.655Z,85.28
2023-03-12T15:34:50.071Z,84.95
2023-03-12T15:37:36.320Z,85.02
2023-03-12T15:40:20.903Z,84.20
2023-03-12T15:43:01.006Z,84.38
2023-03-12T15:45:40.138Z,84.18
2023-03-12T15:48:35.442Z,84.01
2023-03-12T15:51:11.777Z,83.72
2023-03-12T15:53:40.655Z,83.56
2023-03-12T15:56:12.750Z,82.73
2023-03-12T15:58:41.707Z,82.70
2023-03-12T16:01:12.734Z,82.42
2023-03-12T16:03:45.829Z,82.55
2023-03-12T16:06:32.218Z,83.15
2023-03-12T16:09:06.319Z,83.05
2023-03-12T16:11:36.441Z,82.86
2023-03-12T16:14:08.531Z,82.43
2023-03-12T16:16:37.683Z,82.63
2023-03-12T16:19:16.148Z,81.97
2023-03-12T16:21:44.689Z,81.53
2023-03-12T16:24:16.575Z,80.65
2023-03-12T16:26:50.265Z,80.52
2023-03-12T16:29:18.701Z,80.35
2023-03-12T16:31:57.335Z,79.90
2023-03-12T16:34:25.489Z,80.89
2023-03-12T16:36:53.827Z,83.68
2023-03-12T16:39:23.997Z,84.19
2023-03-12T16:41:52.049Z,83.95
2023-03-12T16:44:21.004Z,84.51
2023-03-12T16:46:49.735Z,85.05
2023-03-12T16:49:20.947Z,84.99
2023-03-12T16:51:50.107Z,84.85
2023-03-12T16:54:18.744Z,83.85
2023-03-12T16:56:48.302Z,82.35
2023-03-12T16:59:25.527Z,81.86
2023-03-12T17:01:53.973Z,80.84
2023-03-12T17:04:23.182Z,80.54
2023-03-12T17:06:51.211Z,79.98
2023-03-12T17:09:20.768Z,78.65
2023-03-12T17:14:18.627Z,77.17
2023-03-12T17:16:52.227Z,77.75
2023-03-12T17:19:20.509Z,77.55
2023-03-12T17:21:50.212Z,77.76
2023-03-12T17:24:28.106Z,77.04
2023-03-12T17:26:58.252Z,77.89
2023-03-12T17:29:27.321Z,78.24
2023-03-12T17:31:55.824Z,78.72
2023-03-12T17:34:30.452Z,78.47
2023-03-12T17:37:03.466Z,78.47
2023-03-12T17:39:35.642Z,78.45
2023-03-12T17:42:04.057Z,78.98
2023-03-12T17:44:39.033Z,78.59
2023-03-12T17:47:07.505Z,78.62
2023-03-12T17:49:41.773Z,79.11
2023-03-12T17:52:16.266Z,79.04
2023-03-12T17:54:55.490Z,79.49
2023-03-12T17:57:35.343Z,79.55
2023-03-12T18:00:28.257Z,79.34
2023-03-12T18:03:09.218Z,79.97
2023-03-12T18:08:52.170Z,80.10
2023-03-12T18:11:28.409Z,80.40
2023-03-12T18:14:04.083Z,80.74
2023-03-12T18:16:36.632Z,80.70
2023-03-12T18:19:12.558Z,80.74
2023-03-12T18:21:43.909Z,80.85
2023-03-12T18:24:14.313Z,81.32
2023-03-12T18:26:49.761Z,81.04
2023-03-12T18:29:18.219Z,81.02
2023-03-12T18:31:46.189Z,80.97
2023-03-12T18:34:14.564Z,81.27
2023-03-12T18:36:44.052Z,81.66
2023-03-12T18:39:12.622Z,81.65
2023-03-12T18:41:42.101Z,81.88
2023-03-12T18:44:13.181Z,81.95
2023-03-12T18:46:43.158Z,82.40
2023-03-12T18:49:15.200Z,82.08
2023-03-12T18:51:43.706Z,82.02
2023-03-12T18:54:13.083Z,82.34
2023-03-12T18:56:41.397Z,82.40
2023-03-12T18:59:32.776Z,82.09
2023-03-12T19:02:01.008Z,82.07
2023-03-12T19:04:30.319Z,81.74
2023-03-12T19:07:00.934Z,81.59
2023-03-12T19:09:30.620Z,81.36
2023-03-12T19:11:59.615Z,80.81
2023-03-12T19:14:29.484Z,80.95
2023-03-12T19:17:00.588Z,80.94
2023-03-12T19:19:29.460Z,80.49
2023-03-12T19:22:00.229Z,80.13
2023-03-12T19:24:29.839Z,80.13
2023-03-12T19:26:58.636Z,80.10
2023-03-12T19:29:26.947Z,80.14
2023-03-12T19:31:55.387Z,80.00
2023-03-12T19:34:28.527Z,80.08
2023-03-12T19:36:56.809Z,79.78
2023-03-12T19:39:25.478Z,80.03
2023-03-12T19:41:54.920Z,80.46
2023-03-12T19:44:23.756Z,80.20
2023-03-12T19:46:52.718Z,80.27
2023-03-12T19:49:21.177Z,80.20
2023-03-12T19:51:49.360Z,80.23
2023-03-12T19:54:19.028Z,80.83
2023-03-12T19:56:47.566Z,81.14
2023-03-12T19:59:19.979Z,80.85
2023-03-12T20:01:48.104Z,81.03
2023-03-12T20:04:18.593Z,80.91
2023-03-12T20:06:47.705Z,81.14
2023-03-12T20:09:16.173Z,81.53
2023-03-12T20:11:47.993Z,81.95
2023-03-12T20:14:18.011Z,82.94
2023-03-12T20:16:46.163Z,82.59
2023-03-12T20:19:15.299Z,81.59
2023-03-12T20:21:47.088Z,81.66
2023-03-12T20:24:18.196Z,81.10
2023-03-12T20:26:46.583Z,79.96
2023-03-12T20:29:14.724Z,79.54
2023-03-12T20:31:48.086Z,79.11
2023-03-12T20:34:17.037Z,78.72
2023-03-12T20:36:47.673Z,78.30
2023-03-12T20:39:17.995Z,77.83
2023-03-12T20:41:46.502Z,77.11
2023-03-12T20:44:14.932Z,77.22
2023-03-12T20:46:42.881Z,76.85
2023-03-12T20:49:11.165Z,76.59
2023-03-12T20:51:46.622Z,76.42
2023-03-12T20:54:15.497Z,76.37
2023-03-12T20:56:44.874Z,76.40
2023-03-12T20:59:13.085Z,76.51
2023-03-12T21:01:43.682Z,76.10
2023-03-12T21:04:11.998Z,76.00
2023-03-12T21:06:42.103Z,76.35
2023-03-12T21:09:10.836Z,76.41
2023-03-12T21:11:40.440Z,76.12
2023-03-12T21:14:08.993Z,75.91
2023-03-12T21:16:42.271Z,76.03
2023-03-12T21:19:10.252Z,76.11
2023-03-12T21:21:40.707Z,76.38
2023-03-12T21:24:09.393Z,76.42
2023-03-12T21:26:38.328Z,75.88
2023-03-12T21:29:06.997Z,75.23
2023-03-12T21:31:36.551Z,75.55
2023-03-12T21:34:05.241Z,75.55
2023-03-12T21:36:34.460Z,75.18
2023-03-12T21:39:03.101Z,75.26
2023-03-12T21:41:31.236Z,75.24
2023-03-12T21:44:05.300Z,74.43
2023-03-12T21:46:34.468Z,74.29
2023-03-12T21:49:03.395Z,73.50
2023-03-12T21:51:31.577Z,73.54
2023-03-12T21:53:59.706Z,73.24
2023-03-12T21:56:29.782Z,73.48
2023-03-12T21:58:58.101Z,73.53
2023-03-12T22:01:26.296Z,73.90
2023-03-12T22:03:54.554Z,73.69
2023-03-12T22:06:25.016Z,73.66
2023-03-12T22:09:00.145Z,74.01
2023-03-12T22:11:29.623Z,73.64
2023-03-12T22:13:57.732Z,73.73
2023-03-12T22:16:27.833Z,73.96
2023-03-12T22:18:56.687Z,73.81
2023-03-12T22:21:24.954Z,74.39
2023-03-12T22:23:53.707Z,74.53
2023-03-12T22:26:23.006Z,74.52
2023-03-12T22:28:53.390Z,74.58
2023-03-12T22:31:22.642Z,74.57
2023-03-12T22:33:50.718Z,75.00
2023-03-12T22:36:19.546Z,74.52
2023-03-12T22:38:52.236Z,75.00
2023-03-12T22:41:27.710Z,75.18
2023-03-12T22:43:57.545Z,75.46
2023-03-12T22:46:29.854Z,75.70
2023-03-12T22:48:59.714Z,75.76
2023-03-12T22:51:29.313Z,76.08
2023-03-12T22:53:58.412Z,76.28
2023-03-12T22:56:27.034Z,76.53
2023-03-12T22:58:56.008Z,76.83
2023-03-12T23:01:24.892Z,77.00
2023-03-12T23:03:56.996Z,76.93
2023-03-12T23:06:27.218Z,77.06
2023-03-12T23:08:55.805Z,77.11
2023-03-12T23:11:25.691Z,77.39
2023-03-12T23:13:54.495Z,77.51
2023-03-12T23:16:24.670Z,77.46
2023-03-12T23:18:56.606Z,77.62
2023-03-12T23:21:25.212Z,77.77
2023-03-12T23:23:54.767Z,77.89
2023-03-12T23:26:26.996Z,77.53
2023-03-12T23:28:58.109Z,77.58
2023-03-12T23:31:28.138Z,77.91
2023-03-12T23:33:59.493Z,77.79
2023-03-12T23:36:32.065Z,77.67
2023-03-12T23:39:00.656Z,77.82
2023-03-12T23:41:29.804Z,78.06
2023-03-12T23:44:02.408Z,78.38
2023-03-12T23:46:31.501Z,77.64
2023-03-12T23:49:00.274Z,77.93
2023-03-12T23:51:31.055Z,78.18
2023-03-12T23:54:05.237Z,78.21
2023-03-12T23:56:35.905Z,78.33
2023-03-12T23:59:05.466Z,78.16
